sensor_id;sensor_type;location;lat;lon;timestamp;pressure;altitude;pressure_sealevel;temperature;humidity
20077;BME280;12348;42.710;23.378;2022-07-29T00:01:16;95283.72;;;19.07;100.00
20077;BME280;12348;42.710;23.378;2022-07-29T00:03:44;95295.31;;;19.04;100.00
20077;BME280;12348;42.710;23.378;2022-07-29T00:06:11;95292.94;;;19.14;100.00
20077;BME280;12348;42.710;23.378;2022-07-29T00:08:39;95293.63;;;19.11;100.00
20077;BME280;12348;42.710;23.378;2022-07-29T00:11:06;95305.44;;;19.03;100.00
20077;BME280;12348;42.710;23.378;2022-07-29T00:13:33;95314.28;;;18.88;100.00
20077;BME280;12348;42.710;23.378;2022-07-29T00:16:00;95315.72;;;18.73;100.00
20077;BME280;12348;42.710;23.378;2022-07-29T00:18:26;95309.88;;;18.62;100.00
20077;BME280;12348;42.710;23.378;2022-07-29T00:20:53;95304.41;;;18.62;100.00
20077;BME280;12348;42.710;23.378;2022-07-29T00:23:20;95305.06;;;18.59;100.00
20077;BME280;12348;42.710;23.378;2022-07-29T00:25:49;95299.28;;;18.49;100.00
20077;BME280;12348;42.710;23.378;2022-07-29T00:28:15;95302.97;;;18.44;100.00
20077;BME280;12348;42.710;23.378;2022-07-29T00:30:42;95305.03;;;18.47;100.00
20077;BME280;12348;42.710;23.378;2022-07-29T00:33:09;95318.69;;;18.47;100.00
20077;BME280;12348;42.710;23.378;2022-07-29T00:35:36;95306.41;;;18.41;100.00
20077;BME280;12348;42.710;23.378;2022-07-29T00:38:12;95302.00;;;18.49;100.00
20077;BME280;12348;42.710;23.378;2022-07-29T00:40:39;95304.09;;;18.31;100.00
20077;BME280;12348;42.710;23.378;2022-07-29T00:43:09;95302.03;;;18.28;100.00
20077;BME280;12348;42.710;23.378;2022-07-29T00:45:35;95302.56;;;18.21;100.00
20077;BME280;12348;42.710;23.378;2022-07-29T00:48:03;95313.59;;;18.25;100.00
20077;BME280;12348;42.710;23.378;2022-07-29T00:50:30;95312.56;;;18.29;100.00
20077;BME280;12348;42.710;23.378;2022-07-29T00:52:58;95311.66;;;18.25;100.00
20077;BME280;12348;42.710;23.378;2022-07-29T00:55:25;95312.13;;;18.27;100.00
20077;BME280;12348;42.710;23.378;2022-07-29T00:57:52;95314.88;;;18.60;100.00
20077;BME280;12348;42.710;23.378;2022-07-29T01:00:22;95304.16;;;18.55;100.00
20077;BME280;12348;42.710;23.378;2022-07-29T01:02:50;95311.25;;;18.69;100.00
20077;BME280;12348;42.710;23.378;2022-07-29T01:05:18;95307.81;;;18.59;100.00
20077;BME280;12348;42.710;23.378;2022-07-29T01:07:46;95303.03;;;18.56;100.00
20077;BME280;12348;42.710;23.378;2022-07-29T01:10:15;95307.88;;;18.38;100.00
20077;BME280;12348;42.710;23.378;2022-07-29T01:12:43;95303.88;;;18.36;100.00
20077;BME280;12348;42.710;23.378;2022-07-29T01:15:11;95299.63;;;18.26;100.00
20077;BME280;12348;42.710;23.378;2022-07-29T01:17:43;95298.56;;;18.18;100.00
20077;BME280;12348;42.710;23.378;2022-07-29T01:20:17;95291.25;;;18.10;100.00
20077;BME280;12348;42.710;23.378;2022-07-29T01:26:00;95290.72;;;17.96;100.00
20077;BME280;12348;42.710;23.378;2022-07-29T01:28:49;95288.47;;;17.98;100.00
20077;BME280;12348;42.710;23.378;2022-07-29T01:31:22;95288.56;;;17.89;100.00
20077;BME280;12348;42.710;23.378;2022-07-29T01:34:01;95298.31;;;17.90;100.00
20077;BME280;12348;42.710;23.378;2022-07-29T01:36:32;95294.44;;;17.91;100.00
20077;BME280;12348;42.710;23.378;2022-07-29T01:39:05;95295.50;;;17.99;100.00
20077;BME280;12348;42.710;23.378;2022-07-29T01:41:34;95289.78;;;17.92;100.00
20077;BME280;12348;42.710;23.378;2022-07-29T01:44:12;95281.81;;;17.87;100.00
20077;BME280;12348;42.710;23.378;2022-07-29T01:46:44;95278.38;;;17.78;100.00
20077;BME280;12348;42.710;23.378;2022-07-29T01:49:15;95274.88;;;17.68;100.00
20077;BME280;12348;42.710;23.378;2022-07-29T01:51:47;95266.44;;;17.61;100.00
20077;BME280;12348;42.710;23.378;2022-07-29T01:54:19;95277.16;;;17.66;100.00
20077;BME280;12348;42.710;23.378;2022-07-29T01:56:48;95271.22;;;17.64;100.00
20077;BME280;12348;42.710;23.378;2022-07-29T01:59:19;95274.66;;;17.74;100.00
20077;BME280;12348;42.710;23.378;2022-07-29T02:01:47;95278.53;;;17.81;100.00
20077;BME280;12348;42.710;23.378;2022-07-29T02:04:18;95268.41;;;17.82;100.00
20077;BME280;12348;42.710;23.378;2022-07-29T02:06:47;95268.69;;;17.89;100.00
20077;BME280;12348;42.710;23.378;2022-07-29T02:09:17;95270.41;;;17.93;100.00
20077;BME280;12348;42.710;23.378;2022-07-29T02:11:49;95267.16;;;18.00;100.00
20077;BME280;12348;42.710;23.378;2022-07-29T02:14:21;95264.78;;;18.11;100.00
20077;BME280;12348;42.710;23.378;2022-07-29T02:16:52;95263.88;;;18.07;100.00
20077;BME280;12348;42.710;23.378;2022-07-29T02:19:21;95268.06;;;18.04;100.00
20077;BME280;12348;42.710;23.378;2022-07-29T02:21:51;95271.84;;;18.12;100.00
20077;BME280;12348;42.710;23.378;2022-07-29T02:24:21;95274.84;;;18.19;100.00
20077;BME280;12348;42.710;23.378;2022-07-29T02:26:50;95265.63;;;18.11;100.00
20077;BME280;12348;42.710;23.378;2022-07-29T02:29:21;95267.88;;;18.09;100.00
20077;BME280;12348;42.710;23.378;2022-07-29T02:31:49;95278.19;;;18.04;100.00
20077;BME280;12348;42.710;23.378;2022-07-29T02:34:18;95270.38;;;18.14;100.00
20077;BME280;12348;42.710;23.378;2022-07-29T02:36:46;95267.47;;;18.20;100.00
20077;BME280;12348;42.710;23.378;2022-07-29T02:39:15;95258.94;;;18.21;100.00
20077;BME280;12348;42.710;23.378;2022-07-29T02:41:44;95257.34;;;18.20;100.00
20077;BME280;12348;42.710;23.378;2022-07-29T02:44:13;95259.94;;;18.16;100.00
20077;BME280;12348;42.710;23.378;2022-07-29T02:46:46;95257.44;;;18.11;100.00
20077;BME280;12348;42.710;23.378;2022-07-29T02:49:17;95246.72;;;18.06;100.00
20077;BME280;12348;42.710;23.378;2022-07-29T02:51:46;95249.75;;;17.92;100.00
20077;BME280;12348;42.710;23.378;2022-07-29T02:54:22;95242.81;;;17.95;100.00
20077;BME280;12348;42.710;23.378;2022-07-29T02:56:49;95257.78;;;17.89;100.00
20077;BME280;12348;42.710;23.378;2022-07-29T02:59:24;95259.09;;;18.04;100.00
20077;BME280;12348;42.710;23.378;2022-07-29T03:01:55;95271.13;;;17.82;100.00
20077;BME280;12348;42.710;23.378;2022-07-29T03:04:24;95262.19;;;17.81;100.00
20077;BME280;12348;42.710;23.378;2022-07-29T03:06:52;95258.44;;;17.86;100.00
20077;BME280;12348;42.710;23.378;2022-07-29T03:09:19;95255.19;;;17.92;100.00
20077;BME280;12348;42.710;23.378;2022-07-29T03:11:47;95258.75;;;18.05;100.00
20077;BME280;12348;42.710;23.378;2022-07-29T03:14:15;95248.06;;;18.00;100.00
20077;BME280;12348;42.710;23.378;2022-07-29T03:16:43;95254.03;;;18.14;100.00
20077;BME280;12348;42.710;23.378;2022-07-29T03:19:11;95250.66;;;17.97;100.00
20077;BME280;12348;42.710;23.378;2022-07-29T03:21:40;95254.84;;;17.94;100.00
20077;BME280;12348;42.710;23.378;2022-07-29T03:24:07;95253.78;;;17.86;100.00
20077;BME280;12348;42.710;23.378;2022-07-29T03:26:34;95252.38;;;17.80;100.00
20077;BME280;12348;42.710;23.378;2022-07-29T03:29:01;95248.41;;;17.78;100.00
20077;BME280;12348;42.710;23.378;2022-07-29T03:31:27;95256.50;;;17.86;100.00
20077;BME280;12348;42.710;23.378;2022-07-29T03:33:54;95253.94;;;17.90;100.00
20077;BME280;12348;42.710;23.378;2022-07-29T03:36:22;95257.03;;;17.80;100.00
20077;BME280;12348;42.710;23.378;2022-07-29T03:38:50;95260.31;;;17.64;100.00
20077;BME280;12348;42.710;23.378;2022-07-29T03:41:18;95254.22;;;17.67;100.00
20077;BME280;12348;42.710;23.378;2022-07-29T03:43:47;95257.13;;;17.62;100.00
20077;BME280;12348;42.710;23.378;2022-07-29T03:46:16;95258.66;;;17.72;100.00
20077;BME280;12348;42.710;23.378;2022-07-29T03:48:46;95262.56;;;17.62;100.00
20077;BME280;12348;42.710;23.378;2022-07-29T03:51:14;95258.50;;;17.77;100.00
20077;BME280;12348;42.710;23.378;2022-07-29T03:53:43;95259.19;;;17.65;100.00
20077;BME280;12348;42.710;23.378;2022-07-29T03:56:10;95267.84;;;17.67;100.00
20077;BME280;12348;42.710;23.378;2022-07-29T03:58:42;95269.56;;;17.72;100.00
20077;BME280;12348;42.710;23.378;2022-07-29T04:01:10;95271.06;;;17.90;100.00
20077;BME280;12348;42.710;23.378;2022-07-29T04:03:38;95271.09;;;19.14;100.00
20077;BME280;12348;42.710;23.378;2022-07-29T04:06:06;95264.19;;;20.06;100.00
20077;BME280;12348;42.710;23.378;2022-07-29T04:08:36;95267.81;;;20.51;100.00
20077;BME280;12348;42.710;23.378;2022-07-29T04:11:04;95264.06;;;20.43;100.00
20077;BME280;12348;42.710;23.378;2022-07-29T04:13:32;95271.41;;;21.15;100.00
20077;BME280;12348;42.710;23.378;2022-07-29T04:15:58;95262.63;;;22.46;100.00
20077;BME280;12348;42.710;23.378;2022-07-29T04:18:25;95264.31;;;23.92;100.00
20077;BME280;12348;42.710;23.378;2022-07-29T04:20:52;95258.16;;;23.73;100.00
20077;BME280;12348;42.710;23.378;2022-07-29T04:23:19;95261.09;;;24.17;100.00
20077;BME280;12348;42.710;23.378;2022-07-29T04:25:46;95262.25;;;23.86;100.00
20077;BME280;12348;42.710;23.378;2022-07-29T04:28:14;95256.44;;;24.88;100.00
20077;BME280;12348;42.710;23.378;2022-07-29T04:30:41;95252.34;;;25.12;100.00
20077;BME280;12348;42.710;23.378;2022-07-29T04:33:08;95255.75;;;25.98;90.19
20077;BME280;12348;42.710;23.378;2022-07-29T04:35:36;95264.78;;;25.36;91.75
20077;BME280;12348;42.710;23.378;2022-07-29T04:38:03;95255.41;;;25.48;91.55
20077;BME280;12348;42.710;23.378;2022-07-29T04:40:31;95276.56;;;25.33;93.85
20077;BME280;12348;42.710;23.378;2022-07-29T04:42:59;95265.94;;;26.60;84.12
20077;BME280;12348;42.710;23.378;2022-07-29T04:45:27;95267.66;;;27.11;81.06
20077;BME280;12348;42.710;23.378;2022-07-29T04:47:54;95280.72;;;27.39;77.95
20077;BME280;12348;42.710;23.378;2022-07-29T04:50:21;95277.53;;;28.16;73.32
20077;BME280;12348;42.710;23.378;2022-07-29T04:52:48;95277.44;;;29.25;66.99
20077;BME280;12348;42.710;23.378;2022-07-29T04:55:15;95277.56;;;27.84;72.08
20077;BME280;12348;42.710;23.378;2022-07-29T04:57:41;95275.78;;;28.65;69.12
20077;BME280;12348;42.710;23.378;2022-07-29T05:00:09;95275.91;;;28.22;70.04
20077;BME280;12348;42.710;23.378;2022-07-29T05:02:37;95279.41;;;28.37;70.62
20077;BME280;12348;42.710;23.378;2022-07-29T05:05:05;95275.50;;;29.18;66.17
20077;BME280;12348;42.710;23.378;2022-07-29T05:07:32;95278.00;;;30.44;60.21
20077;BME280;12348;42.710;23.378;2022-07-29T05:09:58;95286.34;;;30.78;56.15
20077;BME280;12348;42.710;23.378;2022-07-29T05:12:26;95283.03;;;31.95;52.19
20077;BME280;12348;42.710;23.378;2022-07-29T05:14:53;95288.38;;;31.86;51.69
20077;BME280;12348;42.710;23.378;2022-07-29T05:17:20;95280.03;;;31.05;54.97
20077;BME280;12348;42.710;23.378;2022-07-29T05:19:48;95287.13;;;31.63;54.08
20077;BME280;12348;42.710;23.378;2022-07-29T05:22:17;95289.75;;;32.41;51.10
20077;BME280;12348;42.710;23.378;2022-07-29T05:24:43;95288.50;;;32.66;48.81
20077;BME280;12348;42.710;23.378;2022-07-29T05:27:10;95286.03;;;34.09;44.84
20077;BME280;12348;42.710;23.378;2022-07-29T05:29:37;95291.28;;;34.53;43.28
20077;BME280;12348;42.710;23.378;2022-07-29T05:32:04;95286.84;;;33.77;46.48
20077;BME280;12348;42.710;23.378;2022-07-29T05:34:31;95282.84;;;35.24;41.16
20077;BME280;12348;42.710;23.378;2022-07-29T05:36:59;95282.31;;;34.74;42.22
20077;BME280;12348;42.710;23.378;2022-07-29T05:39:26;95278.84;;;30.72;54.25
20077;BME280;12348;42.710;23.378;2022-07-29T05:41:53;95277.81;;;29.79;60.86
20077;BME280;12348;42.710;23.378;2022-07-29T05:44:20;95281.03;;;31.45;54.66
20077;BME280;12348;42.710;23.378;2022-07-29T05:46:47;95275.09;;;31.43;52.31
20077;BME280;12348;42.710;23.378;2022-07-29T05:49:14;95287.34;;;32.83;47.87
20077;BME280;12348;42.710;23.378;2022-07-29T05:51:41;95292.09;;;30.60;53.20
20077;BME280;12348;42.710;23.378;2022-07-29T05:54:09;95290.47;;;31.78;46.93
20077;BME280;12348;42.710;23.378;2022-07-29T05:56:36;95293.16;;;30.70;51.04
20077;BME280;12348;42.710;23.378;2022-07-29T05:59:03;95293.47;;;31.64;48.46
20077;BME280;12348;42.710;23.378;2022-07-29T06:01:30;95294.84;;;32.66;45.70
20077;BME280;12348;42.710;23.378;2022-07-29T06:03:57;95291.91;;;33.29;44.47
20077;BME280;12348;42.710;23.378;2022-07-29T06:06:24;95292.78;;;32.50;45.84
20077;BME280;12348;42.710;23.378;2022-07-29T06:08:50;95305.69;;;31.97;47.61
20077;BME280;12348;42.710;23.378;2022-07-29T06:11:19;95299.06;;;32.11;47.11
20077;BME280;12348;42.710;23.378;2022-07-29T06:13:46;95300.34;;;33.10;44.22
20077;BME280;12348;42.710;23.378;2022-07-29T06:16:13;95306.00;;;32.66;45.25
20077;BME280;12348;42.710;23.378;2022-07-29T06:18:40;95298.25;;;32.10;46.88
20077;BME280;12348;42.710;23.378;2022-07-29T06:21:08;95296.88;;;31.75;47.24
20077;BME280;12348;42.710;23.378;2022-07-29T06:23:36;95295.25;;;30.62;49.91
20077;BME280;12348;42.710;23.378;2022-07-29T06:26:03;95280.34;;;30.80;52.27
20077;BME280;12348;42.710;23.378;2022-07-29T06:28:32;95290.75;;;31.60;48.46
20077;BME280;12348;42.710;23.378;2022-07-29T06:30:59;95295.34;;;31.17;48.09
20077;BME280;12348;42.710;23.378;2022-07-29T06:33:26;95297.59;;;30.98;48.95
20077;BME280;12348;42.710;23.378;2022-07-29T06:35:53;95295.53;;;31.33;48.47
20077;BME280;12348;42.710;23.378;2022-07-29T06:38:35;95280.53;;;32.01;45.21
20077;BME280;12348;42.710;23.378;2022-07-29T06:41:03;95294.03;;;31.79;45.33
20077;BME280;12348;42.710;23.378;2022-07-29T06:43:34;95289.41;;;31.45;46.12
20077;BME280;12348;42.710;23.378;2022-07-29T06:46:04;95281.78;;;30.23;47.86
20077;BME280;12348;42.710;23.378;2022-07-29T06:48:31;95268.75;;;29.75;50.29
20077;BME280;12348;42.710;23.378;2022-07-29T06:50:59;95284.41;;;29.51;50.80
20077;BME280;12348;42.710;23.378;2022-07-29T06:53:26;95279.91;;;30.47;47.12
20077;BME280;12348;42.710;23.378;2022-07-29T06:55:52;95287.66;;;30.66;45.10
20077;BME280;12348;42.710;23.378;2022-07-29T06:58:19;95287.56;;;30.74;45.64
20077;BME280;12348;42.710;23.378;2022-07-29T07:00:48;95281.78;;;29.82;48.98
20077;BME280;12348;42.710;23.378;2022-07-29T07:03:15;95290.31;;;30.02;47.82
20077;BME280;12348;42.710;23.378;2022-07-29T07:05:42;95281.41;;;30.59;46.52
20077;BME280;12348;42.710;23.378;2022-07-29T07:08:09;95282.69;;;32.13;42.10
20077;BME280;12348;42.710;23.378;2022-07-29T07:10:37;95273.25;;;30.75;43.96
20077;BME280;12348;42.710;23.378;2022-07-29T07:13:04;95290.47;;;30.29;47.08
20077;BME280;12348;42.710;23.378;2022-07-29T07:15:31;95277.03;;;31.46;44.88
20077;BME280;12348;42.710;23.378;2022-07-29T07:17:59;95278.28;;;32.16;41.88
20077;BME280;12348;42.710;23.378;2022-07-29T07:20:26;95269.38;;;31.54;43.56
20077;BME280;12348;42.710;23.378;2022-07-29T07:22:53;95275.00;;;32.21;42.17
20077;BME280;12348;42.710;23.378;2022-07-29T07:25:20;95279.03;;;32.99;40.45
20077;BME280;12348;42.710;23.378;2022-07-29T07:27:47;95283.22;;;31.81;42.67
20077;BME280;12348;42.710;23.378;2022-07-29T07:30:13;95278.09;;;31.56;44.61
20077;BME280;12348;42.710;23.378;2022-07-29T07:32:40;95276.47;;;32.69;41.93
20077;BME280;12348;42.710;23.378;2022-07-29T07:35:10;95274.31;;;32.56;42.12
20077;BME280;12348;42.710;23.378;2022-07-29T07:37:37;95267.69;;;33.43;39.64
20077;BME280;12348;42.710;23.378;2022-07-29T07:40:07;95266.34;;;33.31;40.54
20077;BME280;12348;42.710;23.378;2022-07-29T07:42:34;95270.22;;;32.21;42.42
20077;BME280;12348;42.710;23.378;2022-07-29T07:45:01;95257.31;;;31.06;45.40
20077;BME280;12348;42.710;23.378;2022-07-29T07:47:27;95266.78;;;31.12;44.68
20077;BME280;12348;42.710;23.378;2022-07-29T07:49:54;95268.13;;;32.25;42.30
20077;BME280;12348;42.710;23.378;2022-07-29T07:52:22;95267.69;;;33.43;39.49
20077;BME280;12348;42.710;23.378;2022-07-29T07:54:49;95271.59;;;33.13;39.99
20077;BME280;12348;42.710;23.378;2022-07-29T07:57:16;95267.09;;;32.59;40.85
20077;BME280;12348;42.710;23.378;2022-07-29T07:59:43;95273.03;;;31.98;41.60
20077;BME280;12348;42.710;23.378;2022-07-29T08:02:10;95267.56;;;30.86;46.04
20077;BME280;12348;42.710;23.378;2022-07-29T08:04:37;95266.19;;;31.52;44.26
20077;BME280;12348;42.710;23.378;2022-07-29T08:07:06;95261.91;;;32.18;42.39
20077;BME280;12348;42.710;23.378;2022-07-29T08:09:35;95254.09;;;31.62;43.96
20077;BME280;12348;42.710;23.378;2022-07-29T08:12:03;95267.00;;;33.39;39.26
20077;BME280;12348;42.710;23.378;2022-07-29T08:14:31;95263.44;;;33.54;38.66
20077;BME280;12348;42.710;23.378;2022-07-29T08:16:58;95262.31;;;33.52;38.54
20077;BME280;12348;42.710;23.378;2022-07-29T08:19:25;95267.47;;;33.17;37.86
20077;BME280;12348;42.710;23.378;2022-07-29T08:21:52;95261.16;;;30.89;42.31
20077;BME280;12348;42.710;23.378;2022-07-29T08:24:19;95269.97;;;31.42;41.48
20077;BME280;12348;42.710;23.378;2022-07-29T08:27:04;95251.59;;;32.58;39.57
20077;BME280;12348;42.710;23.378;2022-07-29T08:29:31;95251.84;;;32.64;38.76
20077;BME280;12348;42.710;23.378;2022-07-29T08:31:58;95249.31;;;31.39;41.37
20077;BME280;12348;42.710;23.378;2022-07-29T08:34:25;95250.53;;;31.38;42.26
20077;BME280;12348;42.710;23.378;2022-07-29T08:36:52;95253.59;;;31.71;41.12
20077;BME280;12348;42.710;23.378;2022-07-29T08:39:18;95252.06;;;32.33;39.11
20077;BME280;12348;42.710;23.378;2022-07-29T08:41:45;95257.22;;;31.91;40.97
20077;BME280;12348;42.710;23.378;2022-07-29T08:44:15;95249.28;;;32.33;40.31
20077;BME280;12348;42.710;23.378;2022-07-29T08:46:42;95245.75;;;32.29;40.90
20077;BME280;12348;42.710;23.378;2022-07-29T08:49:09;95238.25;;;33.05;38.50
20077;BME280;12348;42.710;23.378;2022-07-29T08:51:36;95244.72;;;31.25;42.62
20077;BME280;12348;42.710;23.378;2022-07-29T08:54:06;95251.75;;;31.60;42.50
20077;BME280;12348;42.710;23.378;2022-07-29T08:56:34;95245.97;;;32.18;41.28
20077;BME280;12348;42.710;23.378;2022-07-29T08:59:03;95248.69;;;32.02;41.97
20077;BME280;12348;42.710;23.378;2022-07-29T09:01:33;95241.38;;;31.84;41.32
20077;BME280;12348;42.710;23.378;2022-07-29T09:04:01;95254.84;;;31.43;40.64
20077;BME280;12348;42.710;23.378;2022-07-29T09:06:34;95240.56;;;32.31;40.08
20077;BME280;12348;42.710;23.378;2022-07-29T09:09:03;95248.59;;;32.69;39.66
20077;BME280;12348;42.710;23.378;2022-07-29T09:11:32;95230.38;;;33.00;38.81
20077;BME280;12348;42.710;23.378;2022-07-29T09:13:58;95217.16;;;33.70;37.24
20077;BME280;12348;42.710;23.378;2022-07-29T09:16:25;95225.88;;;33.72;35.70
20077;BME280;12348;42.710;23.378;2022-07-29T09:18:53;95226.22;;;33.41;35.03
20077;BME280;12348;42.710;23.378;2022-07-29T09:21:20;95241.63;;;32.97;37.42
20077;BME280;12348;42.710;23.378;2022-07-29T09:24:12;95240.84;;;32.96;36.22
20077;BME280;12348;42.710;23.378;2022-07-29T09:26:40;95236.66;;;32.68;34.68
20077;BME280;12348;42.710;23.378;2022-07-29T09:29:09;95224.06;;;33.49;33.33
20077;BME280;12348;42.710;23.378;2022-07-29T09:31:38;95225.53;;;33.21;32.74
20077;BME280;12348;42.710;23.378;2022-07-29T09:34:07;95232.28;;;33.72;34.38
20077;BME280;12348;42.710;23.378;2022-07-29T09:36:41;95240.84;;;32.96;33.59
20077;BME280;12348;42.710;23.378;2022-07-29T09:39:08;95227.22;;;33.51;34.99
20077;BME280;12348;42.710;23.378;2022-07-29T09:41:48;95230.97;;;33.61;34.89
20077;BME280;12348;42.710;23.378;2022-07-29T09:44:15;95235.41;;;32.69;35.83
20077;BME280;12348;42.710;23.378;2022-07-29T09:46:53;95220.47;;;33.65;34.83
20077;BME280;12348;42.710;23.378;2022-07-29T09:49:22;95220.06;;;33.50;34.34
20077;BME280;12348;42.710;23.378;2022-07-29T09:51:59;95204.59;;;32.93;33.86
20077;BME280;12348;42.710;23.378;2022-07-29T09:54:26;95206.59;;;32.56;34.35
20077;BME280;12348;42.710;23.378;2022-07-29T09:56:55;95215.19;;;32.25;35.63
20077;BME280;12348;42.710;23.378;2022-07-29T09:59:25;95205.53;;;32.70;34.83
20077;BME280;12348;42.710;23.378;2022-07-29T10:01:53;95218.94;;;33.47;33.56
20077;BME280;12348;42.710;23.378;2022-07-29T10:04:21;95219.94;;;31.81;35.89
20077;BME280;12348;42.710;23.378;2022-07-29T10:06:58;95195.94;;;32.71;35.29
20077;BME280;12348;42.710;23.378;2022-07-29T10:09:26;95202.84;;;33.84;33.91
20077;BME280;12348;42.710;23.378;2022-07-29T10:12:17;95174.06;;;33.05;34.94
20077;BME280;12348;42.710;23.378;2022-07-29T10:14:44;95189.16;;;33.24;35.84
20077;BME280;12348;42.710;23.378;2022-07-29T10:17:11;95186.41;;;33.04;33.59
20077;BME280;12348;42.710;23.378;2022-07-29T10:19:39;95186.81;;;32.10;35.25
20077;BME280;12348;42.710;23.378;2022-07-29T10:22:09;95194.19;;;32.41;35.45
20077;BME280;12348;42.710;23.378;2022-07-29T10:24:37;95195.66;;;32.65;34.53
20077;BME280;12348;42.710;23.378;2022-07-29T10:27:05;95174.19;;;32.46;34.78
20077;BME280;12348;42.710;23.378;2022-07-29T10:29:32;95171.06;;;32.60;33.44
20077;BME280;12348;42.710;23.378;2022-07-29T10:35:18;95169.28;;;32.30;34.31
20077;BME280;12348;42.710;23.378;2022-07-29T10:38:07;95178.53;;;32.47;33.96
20077;BME280;12348;42.710;23.378;2022-07-29T10:40:45;95195.09;;;31.71;34.51
20077;BME280;12348;42.710;23.378;2022-07-29T10:43:36;95163.13;;;31.79;35.44
20077;BME280;12348;42.710;23.378;2022-07-29T10:46:04;95153.91;;;32.62;33.76
20077;BME280;12348;42.710;23.378;2022-07-29T10:48:32;95172.59;;;32.81;34.19
20077;BME280;12348;42.710;23.378;2022-07-29T10:51:02;95151.94;;;32.42;33.92
20077;BME280;12348;42.710;23.378;2022-07-29T10:53:47;95146.91;;;32.33;35.13
20077;BME280;12348;42.710;23.378;2022-07-29T10:56:23;95139.00;;;32.32;34.58
20077;BME280;12348;42.710;23.378;2022-07-29T10:59:24;95148.41;;;31.78;35.47
20077;BME280;12348;42.710;23.378;2022-07-29T11:01:54;95147.75;;;31.71;35.79
20077;BME280;12348;42.710;23.378;2022-07-29T11:04:59;95139.16;;;31.61;35.83
20077;BME280;12348;42.710;23.378;2022-07-29T11:07:27;95109.41;;;32.18;35.21
20077;BME280;12348;42.710;23.378;2022-07-29T11:10:22;95134.78;;;32.24;36.51
20077;BME280;12348;42.710;23.378;2022-07-29T11:12:49;95135.34;;;32.15;36.03
20077;BME280;12348;42.710;23.378;2022-07-29T11:15:19;95133.94;;;31.87;36.86
20077;BME280;12348;42.710;23.378;2022-07-29T11:18:07;95118.97;;;31.57;37.37
20077;BME280;12348;42.710;23.378;2022-07-29T11:20:36;95119.25;;;31.83;37.10
20077;BME280;12348;42.710;23.378;2022-07-29T11:23:23;95119.34;;;31.99;37.10
20077;BME280;12348;42.710;23.378;2022-07-29T11:26:16;95118.91;;;31.81;37.67
20077;BME280;12348;42.710;23.378;2022-07-29T11:28:54;95113.78;;;31.99;37.50
20077;BME280;12348;42.710;23.378;2022-07-29T11:31:34;95111.50;;;31.94;37.54
20077;BME280;12348;42.710;23.378;2022-07-29T11:34:22;95112.97;;;31.79;37.87
20077;BME280;12348;42.710;23.378;2022-07-29T11:37:14;95125.09;;;31.49;37.41
20077;BME280;12348;42.710;23.378;2022-07-29T11:39:44;95109.03;;;31.56;37.85
20077;BME280;12348;42.710;23.378;2022-07-29T11:42:45;95125.31;;;31.58;36.88
20077;BME280;12348;42.710;23.378;2022-07-29T11:45:14;95109.63;;;31.68;37.56
20077;BME280;12348;42.710;23.378;2022-07-29T11:47:49;95113.88;;;31.52;37.73
20077;BME280;12348;42.710;23.378;2022-07-29T11:50:17;95106.59;;;31.58;36.89
20077;BME280;12348;42.710;23.378;2022-07-29T11:52:46;95101.41;;;31.60;36.67
20077;BME280;12348;42.710;23.378;2022-07-29T11:55:16;95092.97;;;31.64;35.99
20077;BME280;12348;42.710;23.378;2022-07-29T11:57:47;95121.78;;;31.07;37.78
20077;BME280;12348;42.710;23.378;2022-07-29T12:00:23;95102.47;;;31.67;37.38
20077;BME280;12348;42.710;23.378;2022-07-29T12:02:50;95093.56;;;31.95;35.93
20077;BME280;12348;42.710;23.378;2022-07-29T12:05:18;95094.91;;;32.27;35.75
20077;BME280;12348;42.710;23.378;2022-07-29T12:07:45;95087.88;;;31.59;36.69
20077;BME280;12348;42.710;23.378;2022-07-29T12:10:12;95088.69;;;31.59;36.46
20077;BME280;12348;42.710;23.378;2022-07-29T12:12:41;95091.25;;;31.70;36.14
20077;BME280;12348;42.710;23.378;2022-07-29T12:15:12;95078.78;;;31.78;36.46
20077;BME280;12348;42.710;23.378;2022-07-29T12:17:40;95074.69;;;31.63;36.36
20077;BME280;12348;42.710;23.378;2022-07-29T12:20:07;95076.84;;;31.95;36.23
20077;BME280;12348;42.710;23.378;2022-07-29T12:22:36;95077.78;;;31.69;36.38
20077;BME280;12348;42.710;23.378;2022-07-29T12:25:06;95082.19;;;31.66;37.19
20077;BME280;12348;42.710;23.378;2022-07-29T12:27:34;95076.69;;;31.43;36.24
20077;BME280;12348;42.710;23.378;2022-07-29T12:30:06;95072.13;;;32.12;36.04
20077;BME280;12348;42.710;23.378;2022-07-29T12:32:34;95064.59;;;32.29;36.17
20077;BME280;12348;42.710;23.378;2022-07-29T12:35:04;95068.97;;;32.10;34.99
20077;BME280;12348;42.710;23.378;2022-07-29T12:37:33;95078.00;;;31.98;34.73
20077;BME280;12348;42.710;23.378;2022-07-29T12:40:00;95078.22;;;31.87;35.14
20077;BME280;12348;42.710;23.378;2022-07-29T12:42:28;95072.44;;;31.98;35.41
20077;BME280;12348;42.710;23.378;2022-07-29T12:44:54;95070.78;;;32.00;34.80
20077;BME280;12348;42.710;23.378;2022-07-29T12:47:23;95076.84;;;31.95;35.12
20077;BME280;12348;42.710;23.378;2022-07-29T12:49:50;95066.63;;;31.69;35.46
20077;BME280;12348;42.710;23.378;2022-07-29T12:52:25;95068.75;;;32.21;34.72
20077;BME280;12348;42.710;23.378;2022-07-29T12:54:51;95073.00;;;31.89;35.78
20077;BME280;12348;42.710;23.378;2022-07-29T12:57:19;95060.00;;;32.02;35.75
20077;BME280;12348;42.710;23.378;2022-07-29T12:59:59;95038.25;;;32.14;34.79
20077;BME280;12348;42.710;23.378;2022-07-29T13:02:27;95032.72;;;31.94;34.49
20077;BME280;12348;42.710;23.378;2022-07-29T13:04:57;95053.34;;;31.76;35.08